Time;durP1;ratioP1;P1;durP2;ratioP2;P2;SDS_P1;SDS_P2;PMS_P1;PMS_P2;Temp;Humidity;BMP_temperature;BMP_pressure;BME280_temperature;BME280_humidity;BME280_pressure;Samples;Min_cycle;Max_cycle;Signal;HPM_P1;HPM_P2
2022/04/20 00:06:42;;;;;;;18.1;28.3;;;;;;;0.8;76.1;98490;;;;
2022/04/20 00:16:42;;;;;;;18.1;28.3;;;;;;;0.7;75.9;98500;;;;
2022/04/20 00:26:42;;;;;;;18.1;28.3;;;;;;;0.5;76.2;98500;;;;
2022/04/20 00:36:43;;;;;;;16.1;28.8;;;;;;;0.4;76.4;98500;;;;
2022/04/20 00:47:42;;;;;;;16.1;28.8;;;;;;;0.3;76.8;98500;;;;
2022/04/20 00:57:42;;;;;;;16.1;28.8;;;;;;;0.3;78.4;98500;;;;
2022/04/20 01:08:42;;;;;;;15.5;27.4;;;;;;;0.5;79.1;98510;;;;
2022/04/20 01:18:43;;;;;;;15.5;27.4;;;;;;;0.5;79.6;98500;;;;
2022/04/20 01:28:42;;;;;;;15.5;27.4;;;;;;;0.6;78.6;98500;;;;
2022/04/20 02:32:42;;;;;;;18.9;26.7;;;;;;;0.9;79.9;98450;;;;
2022/04/20 02:43:43;;;;;;;18.9;26.7;;;;;;;1.1;79.8;98440;;;;
2022/04/20 02:54:42;;;;;;;18.9;26.7;;;;;;;1;79.6;98450;;;;
2022/04/20 03:04:42;;;;;;;22.1;31.9;;;;;;;0.9;80.1;98460;;;;
2022/04/20 03:15:42;;;;;;;22.1;31.9;;;;;;;0.8;81.2;98460;;;;
2022/04/20 03:25:42;;;;;;;22.1;31.9;;;;;;;0.7;80.5;98460;;;;
2022/04/20 03:36:42;;;;;;;19.6;28.8;;;;;;;0.6;81;98450;;;;
2022/04/20 03:57:43;;;;;;;19.6;28.8;;;;;;;0.7;82.2;98460;;;;
2022/04/20 04:07:42;;;;;;;22;34.7;;;;;;;0.8;82;98460;;;;
2022/04/20 04:18:43;;;;;;;22;34.7;;;;;;;1;81.9;98470;;;;
2022/04/20 04:29:42;;;;;;;23.3;32.8;;;;;;;1.4;82.3;98480;;;;
2022/04/20 04:39:42;;;;;;;23.3;32.8;;;;;;;1.8;82.1;98480;;;;
2022/04/20 04:49:42;;;;;;;23.3;32.8;;;;;;;2.3;81.2;98480;;;;
2022/04/20 04:59:43;;;;;;;31.5;41;;;;;;;2.9;80;98480;;;;
2022/04/20 05:09:44;;;;;;;31.5;41;;;;;;;3.1;78.4;98480;;;;
2022/04/20 05:20:43;;;;;;;31.5;41;;;;;;;3.5;77.8;98470;;;;
2022/04/20 05:31:43;;;;;;;33.9;42.4;;;;;;;3.8;77;98470;;;;
2022/04/20 05:42:43;;;;;;;33.9;42.4;;;;;;;4.3;75.5;98480;;;;
2022/04/20 05:52:43;;;;;;;33.9;42.4;;;;;;;4.1;75.4;98470;;;;
2022/04/20 06:03:43;;;;;;;46.8;55;;;;;;;4.4;75.4;98470;;;;
2022/04/20 06:13:43;;;;;;;46.8;55;;;;;;;4.8;74.5;98450;;;;
2022/04/20 06:24:43;;;;;;;46.8;55;;;;;;;5.1;73.5;98460;;;;
2022/04/20 06:34:43;;;;;;;47.6;54;;;;;;;5.3;73.3;98450;;;;
2022/04/20 06:45:44;;;;;;;47.6;54;;;;;;;5.6;72.4;98440;;;;
2022/04/20 07:06:43;;;;;;;49.6;60.6;;;;;;;5.7;71.9;98420;;;;
2022/04/20 07:16:43;;;;;;;49.6;60.6;;;;;;;6.3;71.2;98420;;;;
2022/04/20 07:27:43;;;;;;;49.6;60.6;;;;;;;6.7;69.7;98420;;;;
2022/04/20 07:38:45;;;;;;;50;56.9;;;;;;;6.5;67.4;98410;;;;
2022/04/20 07:48:43;;;;;;;50;56.9;;;;;;;6.5;67.1;98410;;;;
2022/04/20 07:58:43;;;;;;;50;56.9;;;;;;;6.4;67.4;98390;;;;
2022/04/20 08:08:43;;;;;;;36.6;44.2;;;;;;;6.5;66.8;98390;;;;
2022/04/20 08:18:43;;;;;;;36.6;44.2;;;;;;;6.7;65.6;98400;;;;
2022/04/20 08:28:43;;;;;;;31.4;44.2;;;;;;;6.7;65.2;98390;;;;
2022/04/20 08:39:43;;;;;;;31.4;36.5;;;;;;;6.9;65.4;98390;;;;
2022/04/20 08:49:43;;;;;;;31.4;36.5;;;;;;;6.9;64.5;98380;;;;
2022/04/20 08:59:43;;;;;;;22.5;25.5;;;;;;;7;64.7;98370;;;;
2022/04/20 09:10:43;;;;;;;22.5;25.5;;;;;;;7;63.6;98370;;;;
2022/04/20 09:20:43;;;;;;;22.5;25.5;;;;;;;7.1;63.1;98370;;;;
2022/04/20 09:31:43;;;;;;;23;28.5;;;;;;;7.2;63.5;98370;;;;
2022/04/20 09:41:43;;;;;;;23;28.5;;;;;;;7.1;63.7;98370;;;;
2022/04/20 09:51:43;;;;;;;23;28.5;;;;;;;6.9;63.6;98370;;;;
2022/04/20 10:02:43;;;;;;;20.2;26.9;;;;;;;7.1;63.4;98350;;;;
2022/04/20 10:12:43;;;;;;;20.2;26.9;;;;;;;7.2;62.2;98340;;;;
2022/04/20 10:22:43;;;;;;;20.2;26.9;;;;;;;7.5;61.5;98330;;;;
2022/04/20 10:33:43;;;;;;;16.9;24.4;;;;;;;7.9;60.2;98340;;;;
2022/04/20 10:43:43;;;;;;;16.9;24.4;;;;;;;8.1;58.6;98330;;;;
2022/04/20 10:53:43;;;;;;;16.9;24.4;;;;;;;8.4;57.3;98330;;;;
2022/04/20 11:03:43;;;;;;;11.8;15;;;;;;;9;56.5;98320;;;;
2022/04/20 11:24:43;;;;;;;11.8;15;;;;;;;9.5;52;98310;;;;
2022/04/20 11:34:43;;;;;;;9.5;14.1;;;;;;;9.8;51;98290;;;;
2022/04/20 11:45:43;;;;;;;9.5;14.1;;;;;;;9.8;50.7;98290;;;;
2022/04/20 11:55:43;;;;;;;9.5;14.1;;;;;;;9.7;50.3;98280;;;;
2022/04/20 12:05:43;;;;;;;9;13.5;;;;;;;9.6;49.9;98270;;;;
2022/04/20 12:16:43;;;;;;;9;13.5;;;;;;;9.5;50.2;98270;;;;
2022/04/20 12:26:43;;;;;;;9;13.5;;;;;;;9.2;51;98280;;;;
2022/04/20 12:37:43;;;;;;;8.8;13.2;;;;;;;9.2;51.7;98280;;;;
2022/04/20 12:47:43;;;;;;;8.8;13.2;;;;;;;8.9;51.6;98280;;;;
2022/04/20 13:09:43;;;;;;;10.2;13.3;;;;;;;8.7;53.5;98290;;;;
2022/04/20 13:20:43;;;;;;;10.2;13.3;;;;;;;8.5;54.4;98290;;;;
2022/04/20 13:31:43;;;;;;;12.2;14.5;;;;;;;8.3;54.1;98310;;;;
2022/04/20 13:42:43;;;;;;;12.2;14.5;;;;;;;8.3;55.2;98320;;;;
2022/04/20 13:53:43;;;;;;;12.2;14.5;;;;;;;8.1;56.2;98320;;;;
2022/04/20 14:04:43;;;;;;;12.8;16.8;;;;;;;8;55.9;98330;;;;
2022/04/20 14:14:43;;;;;;;12.8;16.8;;;;;;;7.9;56.2;98330;;;;
2022/04/20 14:35:43;;;;;;;13;16.1;;;;;;;8;57;98330;;;;
2022/04/20 14:46:43;;;;;;;13;16.1;;;;;;;8;56.7;98330;;;;
2022/04/20 14:56:43;;;;;;;13;16.1;;;;;;;8.1;56.1;98320;;;;
2022/04/20 15:06:43;;;;;;;13.5;18.6;;;;;;;8.2;56.5;98320;;;;
2022/04/20 15:16:45;;;;;;;13.5;18.6;;;;;;;8.3;56.5;98330;;;;
2022/04/20 15:26:43;;;;;;;13.5;18.6;;;;;;;8.2;56;98320;;;;
2022/04/20 15:37:43;;;;;;;15.8;22.5;;;;;;;8.3;55.8;98330;;;;
2022/04/20 15:48:44;;;;;;;15.8;22.5;;;;;;;8.3;56.2;98320;;;;
2022/04/20 16:00:14;;;;;;;16.8;21.9;;;;;;;8.3;56.5;98320;;;;
2022/04/20 16:09:43;;;;;;;16.8;21.9;;;;;;;8.2;57.2;98330;;;;
2022/04/20 16:19:43;;;;;;;16.8;21.9;;;;;;;8.2;58.6;98340;;;;
2022/04/20 16:30:44;;;;;;;17.7;25.1;;;;;;;7.9;59.2;98350;;;;
2022/04/20 16:40:44;;;;;;;17.7;25.1;;;;;;;7.8;60.8;98360;;;;
2022/04/20 16:50:43;;;;;;;17.7;25.1;;;;;;;7.6;62;98370;;;;
2022/04/20 17:01:43;;;;;;;16.2;23.7;;;;;;;7.5;62.8;98370;;;;
2022/04/20 17:11:43;;;;;;;16.2;23.7;;;;;;;7.4;63.1;98370;;;;
2022/04/20 17:32:43;;;;;;;16.9;21.3;;;;;;;7.2;63.8;98400;;;;
2022/04/20 17:43:43;;;;;;;16.9;21.3;;;;;;;7;64.2;98400;;;;
2022/04/20 17:53:43;;;;;;;16.9;21.3;;;;;;;6.9;64.5;98390;;;;
2022/04/20 18:04:43;;;;;;;16.6;20.9;;;;;;;6.9;64.9;98390;;;;
2022/04/20 18:14:43;;;;;;;16.6;20.9;;;;;;;6.9;65.1;98380;;;;
2022/04/20 18:24:43;;;;;;;16.6;20.9;;;;;;;6.8;65.7;98380;;;;
2022/04/20 18:34:43;;;;;;;19.2;22.1;;;;;;;6.7;66.2;98380;;;;
2022/04/20 18:45:45;;;;;;;19.2;22.1;;;;;;;6.7;66.5;98360;;;;
2022/04/20 18:57:47;;;;;;;19.2;22.1;;;;;;;6.6;67.3;98350;;;;
2022/04/20 19:07:44;;;;;;;22;24.4;;;;;;;6.5;67.6;98330;;;;
2022/04/20 19:17:43;;;;;;;22;24.4;;;;;;;6.4;68.2;98310;;;;
2022/04/20 19:27:44;;;;;;;22.8;26.3;;;;;;;6.2;68.5;98310;;;;
2022/04/20 19:37:43;;;;;;;22.8;26.3;;;;;;;6;68.8;98320;;;;
2022/04/20 19:47:44;;;;;;;22.8;26.3;;;;;;;5.8;69.3;98350;;;;
2022/04/20 19:57:43;;;;;;;24.4;28.8;;;;;;;5.7;69.8;98360;;;;
2022/04/20 20:08:44;;;;;;;24.4;28.8;;;;;;;5.5;70.6;98370;;;;
2022/04/20 20:18:43;;;;;;;24.4;28.8;;;;;;;5.4;71.2;98370;;;;
2022/04/20 20:30:05;;;;;;;24;32.5;;;;;;;5.2;71.7;98370;;;;
2022/04/20 20:39:43;;;;;;;24;32.5;;;;;;;5.2;71.8;98380;;;;
2022/04/20 20:50:47;;;;;;;24;32.5;;;;;;;5.2;72.8;98380;;;;
2022/04/20 21:00:43;;;;;;;28.7;34.3;;;;;;;5.2;72.3;98370;;;;
2022/04/20 21:10:43;;;;;;;28.7;34.3;;;;;;;5.1;73.9;98360;;;;
2022/04/20 21:21:45;;;;;;;28.7;34.3;;;;;;;5.2;72.7;98360;;;;
2022/04/20 21:32:43;;;;;;;27.7;36.5;;;;;;;5.1;73.9;98360;;;;
2022/04/20 21:42:44;;;;;;;27.7;36.5;;;;;;;5.1;74.1;98360;;;;
2022/04/20 21:53:45;;;;;;;27.7;36.5;;;;;;;5.1;73.9;98350;;;;
2022/04/20 22:15:43;;;;;;;29.1;37.3;;;;;;;5.1;73.6;98360;;;;
2022/04/20 22:26:43;;;;;;;30.5;37.8;;;;;;;5.2;73.4;98360;;;;
2022/04/20 22:36:43;;;;;;;30.5;37.8;;;;;;;5.2;73.7;98350;;;;
2022/04/20 22:46:43;;;;;;;30.5;37.8;;;;;;;5.2;73.3;98340;;;;
2022/04/20 22:56:43;;;;;;;29.4;37.6;;;;;;;5.3;73.2;98330;;;;
2022/04/20 23:06:43;;;;;;;29.4;37.6;;;;;;;5.2;73.3;98330;;;;
2022/04/20 23:16:45;;;;;;;29.4;37.6;;;;;;;5.3;73.3;98320;;;;
2022/04/20 23:36:43;;;;;;;29.8;35.3;;;;;;;5.2;73.5;98300;;;;
2022/04/20 23:47:43;;;;;;;29.8;35.3;;;;;;;5.2;73.3;98300;;;;
2022/04/20 23:57:43;;;;;;;27.2;35.2;;;;;;;5.2;73.3;98290;;;;
